Time;durP1;ratioP1;P1;durP2;ratioP2;P2;SDS_P1;SDS_P2;PMS_P1;PMS_P2;Temp;Humidity;BMP_temperature;BMP_pressure;BME280_temperature;BME280_humidity;BME280_pressure;Samples;Min_cycle;Max_cycle;Signal;HPM_P1;HPM_P2
2023/10/13 00:00:42;;;;;;;11.80;4.07;;;;;;;13.16;100.00;100702.91;5030971;28;20065;-65
2023/10/13 00:03:18;;;;;;;15.80;5.78;;;;;;;13.16;100.00;100702.91;5026391;28;20041;-65
2023/10/13 00:05:45;;;;;;;10.10;4.53;;;;;;;13.16;100.00;100701.13;5004460;28;20121;-65
2023/10/13 00:08:13;;;;;;;16.23;5.13;;;;;;;13.18;100.00;100701.00;5011289;28;20479;-65
2023/10/13 00:10:42;;;;;;;12.85;6.90;;;;;;;13.16;100.00;100700.28;5007049;28;20619;-65
2023/10/13 00:13:15;;;;;;;16.65;5.90;;;;;;;13.17;100.00;100692.22;5028714;28;20564;-65
2023/10/13 00:15:56;;;;;;;18.02;7.53;;;;;;;13.16;100.00;100689.69;5029177;28;20045;-65
2023/10/13 00:18:27;;;;;;;16.88;7.57;;;;;;;13.15;100.00;100680.94;5022277;28;20084;-65
2023/10/13 00:20:56;;;;;;;18.30;8.32;;;;;;;13.14;100.00;100676.56;5009436;28;20208;-65
2023/10/13 00:23:26;;;;;;;15.63;7.97;;;;;;;13.14;100.00;100673.06;5009232;28;20144;-66
2023/10/13 00:25:58;;;;;;;16.88;7.72;;;;;;;13.16;100.00;100679.97;5027161;28;20052;-66
2023/10/13 00:28:35;;;;;;;16.27;7.90;;;;;;;13.16;100.00;100677.31;5028535;28;20500;-64
2023/10/13 00:31:12;;;;;;;14.40;7.57;;;;;;;13.16;100.00;100679.13;5006601;28;20049;-65
2023/10/13 00:33:42;;;;;;;13.13;7.20;;;;;;;13.16;100.00;100666.75;5026046;28;20148;-64
2023/10/13 00:36:17;;;;;;;20.52;7.15;;;;;;;13.16;100.00;100668.56;5024868;28;20413;-64
2023/10/13 00:38:48;;;;;;;11.85;6.07;;;;;;;13.16;100.00;100668.56;5011077;28;20875;-64
2023/10/13 00:41:16;;;;;;;15.63;6.72;;;;;;;13.14;100.00;100668.63;5030086;28;20398;-64
2023/10/13 00:44:04;;;;;;;11.45;5.70;;;;;;;13.16;100.00;100672.03;5031576;28;20046;-64
2023/10/13 00:46:33;;;;;;;12.25;5.65;;;;;;;13.15;100.00;100666.88;5011506;28;20129;-64
2023/10/13 00:49:06;;;;;;;11.02;4.68;;;;;;;13.15;100.00;100664.22;5026581;28;20146;-64
2023/10/13 00:51:40;;;;;;;14.18;4.85;;;;;;;13.12;100.00;100657.34;5008194;28;20073;-64
2023/10/13 00:54:11;;;;;;;9.20;3.83;;;;;;;13.14;100.00;100659.88;5012312;28;20116;-64
2023/10/13 00:56:46;;;;;;;10.43;3.90;;;;;;;13.15;100.00;100658.94;5007350;28;20172;-64
2023/10/13 00:59:14;;;;;;;14.57;3.88;;;;;;;13.13;100.00;100653.72;5011882;28;20147;-64
2023/10/13 01:01:45;;;;;;;12.02;4.20;;;;;;;13.11;100.00;100660.94;5025370;28;20413;-64
2023/10/13 01:04:12;;;;;;;9.98;3.97;;;;;;;13.11;100.00;100654.81;5022661;28;20089;-64
2023/10/13 01:06:40;;;;;;;10.73;3.72;;;;;;;13.10;100.00;100659.25;5024955;28;20487;-64
2023/10/13 01:09:18;;;;;;;6.57;3.30;;;;;;;13.10;100.00;100668.94;5025954;28;20046;-65
2023/10/13 01:11:54;;;;;;;9.05;3.55;;;;;;;13.10;100.00;100663.66;5024403;28;20179;-64
2023/10/13 01:14:23;;;;;;;7.10;3.45;;;;;;;13.12;100.00;100665.25;5024879;28;20401;-64
2023/10/13 01:16:55;;;;;;;10.70;4.28;;;;;;;13.12;100.00;100652.06;5006755;28;20049;-64
2023/10/13 01:19:27;;;;;;;8.25;3.63;;;;;;;13.10;100.00;100656.63;5025715;28;20049;-64
2023/10/13 01:22:06;;;;;;;9.45;3.13;;;;;;;13.09;100.00;100652.25;5019130;28;20105;-64
2023/10/13 01:24:37;;;;;;;8.85;3.75;;;;;;;13.08;100.00;100647.09;5007547;28;20189;-63
2023/10/13 01:27:17;;;;;;;9.70;3.38;;;;;;;13.08;100.00;100655.00;5024281;28;20061;-64
2023/10/13 01:29:49;;;;;;;9.98;3.60;;;;;;;13.06;100.00;100656.94;5022523;28;20119;-64
2023/10/13 01:32:18;;;;;;;8.23;3.47;;;;;;;13.07;100.00;100655.97;5024285;28;20087;-64
2023/10/13 01:34:47;;;;;;;10.82;3.78;;;;;;;13.07;100.00;100661.25;5023910;28;20045;-64
2023/10/13 01:37:16;;;;;;;9.50;3.58;;;;;;;13.06;100.00;100656.94;5025296;28;20472;-64
2023/10/13 01:39:47;;;;;;;9.07;3.75;;;;;;;13.06;100.00;100660.41;5021492;28;20132;-64
2023/10/13 01:42:21;;;;;;;8.05;3.25;;;;;;;13.07;100.00;100659.44;5020097;28;20470;-64
2023/10/13 01:44:49;;;;;;;10.60;4.45;;;;;;;13.06;100.00;100660.41;5025983;28;20415;-64
2023/10/13 01:47:17;;;;;;;12.93;5.00;;;;;;;13.06;100.00;100652.47;5024670;28;20433;-64
2023/10/13 01:49:47;;;;;;;13.88;5.43;;;;;;;13.06;100.00;100657.78;5022303;28;20107;-64
2023/10/13 01:52:15;;;;;;;10.45;4.75;;;;;;;13.06;100.00;100665.69;5024076;28;20511;-64
2023/10/13 01:54:48;;;;;;;14.40;5.82;;;;;;;13.05;100.00;100656.06;5006980;28;20053;-64
2023/10/13 01:57:17;;;;;;;14.50;5.05;;;;;;;13.03;100.00;100655.31;5022139;28;20128;-64
2023/10/13 01:59:47;;;;;;;15.35;5.22;;;;;;;13.04;100.00;100656.16;5022520;28;20140;-64
2023/10/13 02:02:28;;;;;;;15.77;4.97;;;;;;;13.06;100.00;100657.78;5020583;28;20140;-65
2023/10/13 02:05:00;;;;;;;13.52;6.30;;;;;;;13.02;100.00;100656.28;5031257;28;20081;-64
2023/10/13 02:07:34;;;;;;;16.25;6.28;;;;;;;13.00;100.00;100658.16;5023219;28;20058;-64
2023/10/13 02:10:05;;;;;;;16.65;7.20;;;;;;;13.01;100.00;100653.72;5007473;28;20136;-63
2023/10/13 02:12:42;;;;;;;19.13;6.45;;;;;;;12.98;100.00;100657.44;5020637;28;20064;-63
2023/10/13 02:15:21;;;;;;;14.13;5.60;;;;;;;12.98;100.00;100643.38;5025405;28;20416;-63
2023/10/13 02:17:51;;;;;;;15.15;5.95;;;;;;;12.99;100.00;100647.72;5020943;28;20139;-63
2023/10/13 02:20:22;;;;;;;16.20;6.03;;;;;;;13.00;100.00;100639.66;5026636;28;20180;-62
2023/10/13 02:22:50;;;;;;;11.32;5.55;;;;;;;13.00;100.00;100623.81;5009688;28;20077;-63
2023/10/13 02:28:13;;;;;;;17.92;7.28;;;;;;;13.02;100.00;100606.06;5019960;28;20053;-64
2023/10/13 02:30:44;;;;;;;15.48;6.03;;;;;;;13.02;100.00;100600.78;5022382;28;20061;-65
2023/10/13 02:33:13;;;;;;;13.85;6.80;;;;;;;13.01;100.00;100593.78;5022146;28;20088;-64
2023/10/13 02:35:50;;;;;;;14.05;6.88;;;;;;;13.03;100.00;100602.47;5026193;28;20085;-63
2023/10/13 02:38:26;;;;;;;16.13;7.18;;;;;;;13.03;100.00;100607.75;5021940;28;20099;-63
2023/10/13 02:40:54;;;;;;;26.38;7.45;;;;;;;13.04;100.00;100605.97;5022793;28;20497;-64
2023/10/13 02:43:22;;;;;;;18.27;7.97;;;;;;;13.02;100.00;100610.53;5025500;28;20053;-64
2023/10/13 02:45:57;;;;;;;15.90;7.80;;;;;;;12.98;100.00;100603.75;5020460;28;20492;-64
2023/10/13 02:48:30;;;;;;;19.45;8.10;;;;;;;12.98;100.00;100601.09;5007783;28;20100;-65
2023/10/13 02:51:01;;;;;;;19.60;8.55;;;;;;;12.99;100.00;100600.16;5007743;28;20060;-64
2023/10/13 02:53:29;;;;;;;21.52;8.70;;;;;;;12.96;100.00;100601.19;5007895;28;20160;-64
2023/10/13 02:56:06;;;;;;;20.42;8.50;;;;;;;12.97;100.00;100594.97;5020648;28;20529;-63
2023/10/13 02:58:43;;;;;;;15.60;8.38;;;;;;;12.98;100.00;100593.19;5025789;28;20045;-64
2023/10/13 03:01:16;;;;;;;21.17;7.95;;;;;;;12.97;100.00;100597.63;5023005;28;20107;-63
2023/10/13 03:03:49;;;;;;;21.98;9.38;;;;;;;12.99;100.00;100589.59;5004587;28;20140;-64
2023/10/13 03:06:21;;;;;;;17.40;9.10;;;;;;;12.97;100.00;100594.97;5022672;28;20045;-63
2023/10/13 03:08:48;;;;;;;15.65;9.45;;;;;;;12.98;100.00;100586.09;5022362;28;20099;-63
2023/10/13 03:11:21;;;;;;;17.50;9.30;;;;;;;12.98;100.00;100580.81;5024100;28;20519;-64
2023/10/13 03:13:52;;;;;;;14.13;8.80;;;;;;;13.02;100.00;100577.00;5025589;28;20144;-63
2023/10/13 03:16:19;;;;;;;12.90;8.80;;;;;;;13.04;100.00;100571.59;5026345;28;20133;-63
2023/10/13 03:18:56;;;;;;;19.48;10.38;;;;;;;13.02;100.00;100565.59;5005097;28;20050;-63
2023/10/13 03:21:30;;;;;;;19.67;11.18;;;;;;;13.01;100.00;100567.38;5022720;28;20064;-63
2023/10/13 03:24:06;;;;;;;19.13;10.73;;;;;;;13.03;100.00;100556.72;4984426;28;20111;-63
2023/10/13 03:26:37;;;;;;;18.60;10.48;;;;;;;13.02;100.00;100557.66;5021235;28;20065;-63
2023/10/13 03:29:13;;;;;;;15.95;10.95;;;;;;;13.03;100.00;100554.91;5022237;28;20057;-64
2023/10/13 03:31:40;;;;;;;17.95;11.63;;;;;;;13.02;100.00;100555.88;5021581;28;20136;-64
2023/10/13 03:34:11;;;;;;;18.30;12.27;;;;;;;13.04;100.00;100551.31;5024303;28;20136;-65
2023/10/13 03:36:57;;;;;;;21.02;11.15;;;;;;;13.05;100.00;100544.22;5023789;28;20107;-65
2023/10/13 03:39:29;;;;;;;21.63;11.60;;;;;;;13.05;100.00;100529.19;5009309;28;20114;-65
2023/10/13 03:41:59;;;;;;;23.38;11.73;;;;;;;13.07;100.00;100527.31;5024727;28;20425;-64
2023/10/13 03:44:30;;;;;;;17.42;12.38;;;;;;;13.08;100.00;100520.22;5024594;28;20077;-64
2023/10/13 03:47:08;;;;;;;21.25;12.13;;;;;;;13.10;100.00;100516.53;5034895;28;20073;-65
2023/10/13 03:49:37;;;;;;;23.70;11.40;;;;;;;13.11;100.00;100512.94;5018291;28;20057;-65
2023/10/13 03:52:05;;;;;;;26.00;13.50;;;;;;;13.12;100.00;100519.91;5003292;28;20067;-65
2023/10/13 03:54:34;;;;;;;22.70;13.07;;;;;;;13.13;100.00;100521.56;5026115;28;20081;-64
2023/10/13 03:57:10;;;;;;;24.23;13.95;;;;;;;13.15;100.00;100521.50;5006955;28;20516;-64
2023/10/13 03:59:39;;;;;;;25.52;13.65;;;;;;;13.15;100.00;100524.13;5022390;28;20065;-65
2023/10/13 04:02:17;;;;;;;21.95;14.35;;;;;;;13.15;100.00;100518.84;5000553;28;20103;-64
2023/10/13 04:04:49;;;;;;;22.17;13.25;;;;;;;13.14;100.00;100511.84;5004846;28;20077;-64
2023/10/13 04:10:10;;;;;;;25.88;14.85;;;;;;;13.17;100.00;100506.34;5018650;28;20080;-65
2023/10/13 04:15:27;;;;;;;18.55;14.10;;;;;;;13.18;100.00;100503.59;5020934;28;20069;-64
2023/10/13 04:17:54;;;;;;;27.20;16.73;;;;;;;13.17;100.00;100501.91;5022728;28;20136;-65
2023/10/13 04:20:32;;;;;;;27.52;16.98;;;;;;;13.17;100.00;100512.47;5023447;28;20092;-64
2023/10/13 04:33:50;;;;;;;28.05;17.90;;;;;;;13.26;100.00;100499.59;5018812;28;20091;-65
2023/10/13 04:39:09;;;;;;;35.33;19.05;;;;;;;13.24;100.00;100483.84;5026322;28;20100;-65
2023/10/13 04:41:57;;;;;;;33.38;19.15;;;;;;;13.26;100.00;100478.44;5025902;28;20114;-64
2023/10/13 05:02:43;;;;;;;33.10;21.05;;;;;;;13.38;100.00;100462.53;5025529;28;20088;-63
2023/10/13 05:49:50;;;;;;;26.63;18.55;;;;;;;13.68;100.00;100448.00;5023717;28;20117;-64
2023/10/13 06:28:40;;;;;;;21.65;17.52;;;;;;;13.72;100.00;100449.44;5025437;28;20075;-64
2023/10/13 06:31:14;;;;;;;19.67;15.25;;;;;;;14.33;100.00;100417.47;5026350;28;20094;-64
2023/10/13 06:33:45;;;;;;;26.48;16.73;;;;;;;14.37;100.00;100426.88;5023553;28;20049;-64
2023/10/13 06:36:12;;;;;;;24.35;16.10;;;;;;;14.36;100.00;100431.31;5019474;28;20406;-64
2023/10/13 06:38:41;;;;;;;20.65;15.02;;;;;;;14.34;100.00;100429.75;5024917;28;20136;-64
2023/10/13 06:41:08;;;;;;;29.30;16.83;;;;;;;14.36;100.00;100427.81;5023044;28;20082;-63
2023/10/13 06:43:39;;;;;;;23.40;14.57;;;;;;;14.42;100.00;100427.34;5022449;28;20087;-64
2023/10/13 06:46:14;;;;;;;22.50;15.32;;;;;;;14.42;100.00;100422.88;5006649;28;20053;-66
2023/10/13 06:48:42;;;;;;;22.05;16.25;;;;;;;14.45;100.00;100419.13;5024669;28;20129;-64
2023/10/13 06:51:21;;;;;;;22.48;15.88;;;;;;;14.50;100.00;100424.97;5025311;28;20130;-64
2023/10/13 06:53:49;;;;;;;20.98;14.93;;;;;;;14.61;100.00;100429.41;5007434;28;20157;-64
2023/10/13 06:56:29;;;;;;;22.85;15.95;;;;;;;14.66;100.00;100424.59;5025869;28;20079;-64
2023/10/13 06:58:59;;;;;;;23.50;14.95;;;;;;;14.66;100.00;100425.44;5021904;28;20057;-64
2023/10/13 07:01:27;;;;;;;18.60;13.50;;;;;;;14.79;100.00;100413.88;5023485;28;20049;-64
2023/10/13 07:04:00;;;;;;;22.88;13.27;;;;;;;14.90;100.00;100419.13;5024996;28;20412;-63
2023/10/13 07:06:31;;;;;;;17.85;13.30;;;;;;;15.02;100.00;100419.97;5026123;28;20853;-63
2023/10/13 07:09:04;;;;;;;21.48;13.85;;;;;;;15.16;100.00;100411.75;5019689;28;20135;-63
2023/10/13 07:11:34;;;;;;;17.90;12.57;;;;;;;15.27;100.00;100418.84;5025650;28;20140;-63
2023/10/13 07:14:16;;;;;;;16.40;12.18;;;;;;;15.43;100.00;100413.94;5008801;28;20057;-63
2023/10/13 07:16:58;;;;;;;16.25;11.13;;;;;;;15.55;100.00;100412.94;5026670;28;20049;-63
2023/10/13 07:19:29;;;;;;;15.27;11.30;;;;;;;15.64;100.00;100422.81;5023527;28;20045;-63
2023/10/13 07:22:02;;;;;;;14.32;11.25;;;;;;;15.71;100.00;100417.81;5024954;28;20053;-64
2023/10/13 07:24:33;;;;;;;14.32;10.75;;;;;;;15.68;100.00;100412.78;5006015;28;20092;-64
2023/10/13 07:27:05;;;;;;;16.00;10.88;;;;;;;15.72;100.00;100411.56;5023473;28;20103;-64
2023/10/13 07:29:36;;;;;;;14.20;10.52;;;;;;;15.77;100.00;100414.66;5018148;28;20080;-64
2023/10/13 07:32:03;;;;;;;14.07;10.68;;;;;;;15.78;100.00;100413.69;5022621;28;20058;-64
2023/10/13 07:34:35;;;;;;;15.95;10.00;;;;;;;15.72;100.00;100418.69;5024187;28;20127;-64
2023/10/13 07:37:07;;;;;;;18.67;10.90;;;;;;;15.76;100.00;100399.72;5025805;28;20256;-65
2023/10/13 07:39:38;;;;;;;16.13;9.57;;;;;;;15.87;100.00;100398.81;5023498;28;20111;-64
2023/10/13 07:42:07;;;;;;;15.88;9.00;;;;;;;15.91;100.00;100401.06;5025344;28;20046;-64
2023/10/13 07:44:36;;;;;;;16.08;9.43;;;;;;;15.97;100.00;100399.69;5004398;28;20080;-64
2023/10/13 07:47:07;;;;;;;18.88;8.70;;;;;;;16.06;100.00;100406.03;5026596;28;20401;-64
2023/10/13 07:49:37;;;;;;;16.17;9.73;;;;;;;16.03;100.00;100406.28;5022021;28;20453;-63
2023/10/13 07:55:11;;;;;;;17.67;8.70;;;;;;;16.16;100.00;100402.44;5017250;28;20080;-64
2023/10/13 07:57:56;;;;;;;16.05;9.18;;;;;;;16.14;100.00;100401.75;5003459;28;20044;-65
2023/10/13 08:08:40;;;;;;;11.45;8.63;;;;;;;16.16;100.00;100394.50;5009578;28;20081;-64
2023/10/13 08:14:10;;;;;;;13.43;8.57;;;;;;;16.28;100.00;100381.13;5014387;28;20084;-65
2023/10/13 08:17:00;;;;;;;12.30;8.05;;;;;;;16.33;100.00;100378.91;5014765;28;20079;-65
2023/10/13 08:19:32;;;;;;;14.13;8.60;;;;;;;16.38;100.00;100374.88;5028722;28;20061;-65
2023/10/13 08:27:34;;;;;;;12.43;7.70;;;;;;;16.65;100.00;100374.28;5030332;28;20061;-63
2023/10/13 08:32:56;;;;;;;9.65;7.45;;;;;;;16.80;100.00;100369.47;5015054;28;20049;-64
2023/10/13 08:35:34;;;;;;;14.48;7.35;;;;;;;16.98;100.00;100361.66;5029695;28;20136;-64
2023/10/13 08:38:05;;;;;;;10.55;7.72;;;;;;;17.00;100.00;100362.34;5027649;28;20128;-64
2023/10/13 08:43:44;;;;;;;12.00;8.27;;;;;;;16.90;100.00;100366.81;5011250;28;20499;-63
2023/10/13 08:49:09;;;;;;;13.43;7.65;;;;;;;17.04;100.00;100354.94;4981102;28;20657;-64
2023/10/13 08:51:48;;;;;;;12.38;7.00;;;;;;;17.08;100.00;100356.34;5027209;28;20081;-64
2023/10/13 08:54:33;;;;;;;20.40;8.30;;;;;;;16.98;100.00;100344.88;5024251;28;20085;-64
2023/10/13 08:57:32;;;;;;;14.73;7.53;;;;;;;17.01;100.00;100337.44;5023154;28;20073;-64
2023/10/13 09:00:26;;;;;;;15.23;7.25;;;;;;;17.01;100.00;100333.94;5016092;28;21036;-64
2023/10/13 09:03:26;;;;;;;9.15;6.93;;;;;;;17.08;100.00;100337.72;5025666;28;20084;-62
2023/10/13 09:06:03;;;;;;;12.82;7.30;;;;;;;17.08;100.00;100321.78;5034664;28;20046;-63
2023/10/13 09:08:44;;;;;;;12.23;6.75;;;;;;;17.14;100.00;100329.19;5021770;28;20053;-64
2023/10/13 09:11:12;;;;;;;10.93;6.57;;;;;;;17.19;100.00;100325.13;5001503;28;20064;-65
2023/10/13 09:13:46;;;;;;;13.20;7.38;;;;;;;17.27;100.00;100313.78;5003481;28;20511;-63
2023/10/13 09:19:06;;;;;;;12.02;7.25;;;;;;;17.28;100.00;100326.09;5005111;28;20052;-64
2023/10/13 09:24:29;;;;;;;12.02;7.00;;;;;;;17.34;100.00;100324.72;5023319;28;20061;-63
2023/10/13 09:27:01;;;;;;;12.43;6.82;;;;;;;17.34;100.00;100306.94;5026149;28;20562;-64
2023/10/13 09:29:29;;;;;;;12.93;6.28;;;;;;;17.38;100.00;100307.47;5023652;28;20168;-64
2023/10/13 09:32:11;;;;;;;10.07;7.00;;;;;;;17.35;100.00;100295.28;5006438;28;20115;-65
2023/10/13 09:34:44;;;;;;;8.60;6.15;;;;;;;17.33;100.00;100307.06;5019459;28;20145;-65
2023/10/13 09:37:15;;;;;;;14.88;7.68;;;;;;;17.27;100.00;100294.31;5017408;28;20081;-62
2023/10/13 09:39:52;;;;;;;13.15;7.40;;;;;;;17.33;100.00;100293.75;5005363;28;20149;-65
2023/10/13 09:42:23;;;;;;;9.88;6.40;;;;;;;17.38;100.00;100284.38;5025780;28;20049;-64
2023/10/13 09:44:55;;;;;;;13.20;7.03;;;;;;;17.34;100.00;100280.31;5024149;28;20049;-64
2023/10/13 09:47:30;;;;;;;12.60;6.70;;;;;;;17.30;100.00;100278.94;5023798;28;20141;-64
2023/10/13 09:50:05;;;;;;;11.52;7.75;;;;;;;17.14;100.00;100268.84;5025659;28;20041;-64
2023/10/13 09:52:33;;;;;;;8.82;5.50;;;;;;;17.17;100.00;100260.59;5026095;28;20077;-64
2023/10/13 09:55:12;;;;;;;8.45;7.35;;;;;;;17.10;100.00;100259.47;5022571;28;20072;-64
2023/10/13 09:57:48;;;;;;;12.77;6.88;;;;;;;17.15;100.00;100251.06;5026862;28;20116;-64
2023/10/13 10:00:44;;;;;;;10.25;6.97;;;;;;;17.17;100.00;100255.28;5008674;28;20093;-64
2023/10/13 10:03:15;;;;;;;;;;;;;;;17.25;100.00;100243.09;5006597;28;20519;-64
2023/10/13 10:05:49;;;;;;;12.10;7.22;;;;;;;17.26;100.00;100245.59;5026446;28;19974;-64
2023/10/13 10:08:33;;;;;;;9.57;6.88;;;;;;;17.31;100.00;100235.38;5010229;28;20091;-64
2023/10/13 10:11:08;;;;;;;7.43;6.13;;;;;;;17.40;100.00;100231.84;4982098;28;1153250;-64
2023/10/13 10:13:42;;;;;;;9.75;6.75;;;;;;;17.38;100.00;100240.94;5008931;28;20462;-64
2023/10/13 10:16:19;;;;;;;10.55;6.82;;;;;;;17.46;100.00;100233.09;5023830;28;20053;-65
2023/10/13 10:18:47;;;;;;;8.43;5.85;;;;;;;17.49;100.00;100229.31;5008729;28;20042;-65
2023/10/13 10:21:16;;;;;;;9.05;5.90;;;;;;;17.46;100.00;100225.94;5008450;28;20045;-65
2023/10/13 10:23:53;;;;;;;12.32;6.93;;;;;;;17.43;100.00;100233.41;5023416;28;20171;-62
2023/10/13 10:26:20;;;;;;;11.45;6.47;;;;;;;17.44;100.00;100235.06;5023749;28;20405;-64
2023/10/13 10:28:48;;;;;;;8.73;6.15;;;;;;;17.45;100.00;100224.25;4998580;28;20107;-64
2023/10/13 10:31:17;;;;;;;13.05;6.47;;;;;;;17.43;100.00;100233.41;5024055;28;20518;-63
2023/10/13 10:33:46;;;;;;;12.18;6.65;;;;;;;17.48;100.00;100212.50;5025079;28;20053;-65
2023/10/13 10:36:16;;;;;;;9.00;5.82;;;;;;;17.53;100.00;100228.03;5026531;28;20073;-64
2023/10/13 10:38:59;;;;;;;8.85;6.13;;;;;;;17.51;100.00;100220.19;5024987;28;20053;-64
2023/10/13 10:44:34;;;;;;;10.38;6.53;;;;;;;17.45;100.00;100229.59;5012334;28;20057;-65
2023/10/13 10:47:19;;;;;;;10.57;6.78;;;;;;;17.47;100.00;100232.09;5021617;28;20154;-65
2023/10/13 10:49:47;;;;;;;8.15;5.68;;;;;;;17.41;100.00;100206.06;5024688;28;20177;-65
2023/10/13 10:52:20;;;;;;;11.13;6.80;;;;;;;17.38;100.00;100187.72;5021273;28;20128;-65
2023/10/13 10:54:59;;;;;;;13.13;7.45;;;;;;;17.35;100.00;100196.00;4983676;28;20107;-65
2023/10/13 10:57:29;;;;;;;9.40;6.72;;;;;;;17.38;100.00;100193.03;5007571;28;20136;-64
2023/10/13 11:00:14;;;;;;;9.50;6.57;;;;;;;17.42;100.00;100194.44;5025545;28;20072;-65
2023/10/13 11:02:41;;;;;;;9.48;7.03;;;;;;;17.45;100.00;100189.66;5009620;28;20104;-65
2023/10/13 11:05:17;;;;;;;10.40;6.90;;;;;;;17.53;100.00;100174.81;5025757;28;20132;-65
2023/10/13 11:07:50;;;;;;;10.95;6.60;;;;;;;17.52;100.00;100178.47;5024619;28;20184;-65
2023/10/13 11:10:27;;;;;;;9.68;6.63;;;;;;;17.57;100.00;100162.88;5024973;28;20133;-65
2023/10/13 11:13:21;;;;;;;13.57;7.13;;;;;;;17.58;100.00;100156.56;5028340;28;20085;-64
2023/10/13 11:15:50;;;;;;;14.90;6.95;;;;;;;17.61;100.00;100164.28;5014596;28;20057;-65
2023/10/13 11:18:21;;;;;;;11.23;7.72;;;;;;;17.64;100.00;100167.47;5024195;28;20103;-64
2023/10/13 11:20:54;;;;;;;10.52;6.70;;;;;;;17.61;100.00;100138.50;5003531;28;20168;-64
2023/10/13 11:23:25;;;;;;;10.13;6.90;;;;;;;17.68;100.00;100152.03;5024824;28;20077;-65
2023/10/13 11:25:59;;;;;;;15.98;7.35;;;;;;;17.70;100.00;100158.91;5024212;28;20061;-65
2023/10/13 11:28:27;;;;;;;9.45;6.68;;;;;;;17.78;100.00;100146.69;5024899;28;20127;-65
2023/10/13 11:31:10;;;;;;;9.27;6.47;;;;;;;17.80;100.00;100140.25;5022054;28;20133;-65
2023/10/13 11:33:47;;;;;;;9.07;6.97;;;;;;;17.84;100.00;100146.13;5024623;28;20088;-65
2023/10/13 11:36:17;;;;;;;9.77;7.10;;;;;;;17.84;100.00;100144.28;5007486;28;20144;-65
2023/10/13 11:41:16;;;;;;;15.48;8.18;;;;;;;17.81;100.00;100141.91;5008111;28;20546;-64
2023/10/13 11:51:44;;;;;;;10.95;6.40;;;;;;;17.93;100.00;100116.75;5028938;28;20562;-64
2023/10/13 11:54:23;;;;;;;11.45;7.00;;;;;;;18.02;100.00;100122.19;5029806;28;20045;-64
2023/10/13 11:56:51;;;;;;;12.35;7.00;;;;;;;18.08;100.00;100116.25;5027301;28;20085;-64
2023/10/13 11:59:18;;;;;;;16.60;7.75;;;;;;;18.12;100.00;100121.13;5030225;28;20064;-64
2023/10/13 12:04:51;;;;;;;11.07;6.40;;;;;;;18.19;100.00;100103.53;5001220;28;20140;-65
2023/10/13 12:07:23;;;;;;;10.52;7.15;;;;;;;18.33;100.00;100104.00;5030106;28;20137;-65
2023/10/13 12:12:25;;;;;;;15.35;7.15;;;;;;;18.45;100.00;100092.09;5006490;28;20127;-64
2023/10/13 12:14:55;;;;;;;12.93;6.63;;;;;;;18.44;100.00;100087.75;4989898;28;20145;-63
2023/10/13 12:17:31;;;;;;;12.63;6.60;;;;;;;18.48;100.00;100081.13;5011794;28;20519;-64
2023/10/13 12:19:59;;;;;;;12.73;6.65;;;;;;;18.58;100.00;100083.69;5027872;28;20037;-64
2023/10/13 12:22:35;;;;;;;12.43;5.55;;;;;;;18.65;100.00;100074.94;5009317;28;20049;-64
2023/10/13 12:25:24;;;;;;;12.90;5.93;;;;;;;18.75;100.00;100077.53;5029086;28;20406;-63
2023/10/13 12:27:56;;;;;;;16.23;6.60;;;;;;;18.85;100.00;100066.75;5025974;28;20191;-64
2023/10/13 12:30:48;;;;;;;11.60;7.00;;;;;;;18.88;100.00;100061.13;5011221;28;20049;-63
2023/10/13 12:33:24;;;;;;;13.45;6.45;;;;;;;18.84;100.00;100054.41;5027444;28;20099;-63
2023/10/13 12:36:03;;;;;;;14.13;6.32;;;;;;;18.89;100.00;100057.44;5027290;28;20061;-64
2023/10/13 12:38:37;;;;;;;14.80;6.32;;;;;;;18.91;100.00;100042.09;5027051;28;20574;-65
2023/10/13 12:52:16;;;;;;;13.50;6.22;;;;;;;19.21;100.00;100024.75;5029081;28;20072;-64
2023/10/13 12:54:47;;;;;;;10.77;6.50;;;;;;;19.31;100.00;100014.78;5026601;28;20515;-65
2023/10/13 12:57:15;;;;;;;17.20;6.13;;;;;;;19.30;100.00;100015.78;5027518;28;20128;-63
2023/10/13 12:59:43;;;;;;;11.52;5.78;;;;;;;19.41;100.00;100018.16;5011414;28;20535;-65
2023/10/13 13:02:15;;;;;;;19.75;6.45;;;;;;;19.42;100.00;100013.66;5025591;28;20112;-64
2023/10/13 13:04:48;;;;;;;12.90;5.65;;;;;;;19.55;100.00;99998.03;5023743;28;20145;-65
2023/10/13 13:07:15;;;;;;;17.35;7.22;;;;;;;19.86;100.00;99990.25;5026192;28;20058;-64
2023/10/13 13:09:43;;;;;;;13.63;5.88;;;;;;;19.96;100.00;99987.41;5024759;28;20140;-64
2023/10/13 13:12:12;;;;;;;10.77;5.85;;;;;;;20.01;100.00;99984.25;5009142;28;20049;-64
2023/10/13 13:14:45;;;;;;;11.13;5.80;;;;;;;20.29;100.00;99982.88;5027406;28;20140;-64
2023/10/13 13:17:13;;;;;;;12.23;5.35;;;;;;;20.58;100.00;99984.19;5025784;28;20104;-63
2023/10/13 13:19:42;;;;;;;12.85;5.70;;;;;;;20.76;100.00;99979.50;4997668;28;20041;-64
2023/10/13 13:22:11;;;;;;;11.65;5.82;;;;;;;20.92;100.00;99979.41;5026275;28;20117;-64
2023/10/13 13:24:44;;;;;;;13.70;5.88;;;;;;;21.22;100.00;99974.28;5023237;28;20052;-63
2023/10/13 13:27:17;;;;;;;18.23;5.47;;;;;;;21.57;98.75;99970.28;5026894;28;20146;-64
2023/10/13 13:29:44;;;;;;;17.02;5.28;;;;;;;22.27;95.80;99974.59;5025531;28;20481;-63
2023/10/13 13:32:24;;;;;;;13.52;5.40;;;;;;;23.12;88.41;99974.19;5024086;28;20129;-63
2023/10/13 13:35:04;;;;;;;15.38;5.03;;;;;;;23.20;86.49;99957.97;5025387;28;20590;-63
2023/10/13 13:37:32;;;;;;;15.88;4.95;;;;;;;23.36;84.57;99958.75;5025798;28;20049;-64
2023/10/13 13:40:13;;;;;;;13.00;5.80;;;;;;;22.75;87.80;99959.00;5007931;28;20125;-64
2023/10/13 13:42:42;;;;;;;15.63;6.22;;;;;;;22.27;89.42;99957.69;5025870;28;20122;-64
2023/10/13 13:45:29;;;;;;;20.88;5.35;;;;;;;22.63;88.12;99952.44;5026510;28;20053;-65
2023/10/13 13:47:56;;;;;;;16.05;5.18;;;;;;;22.57;87.54;99951.34;5020409;28;20085;-65
2023/10/13 13:50:26;;;;;;;14.80;4.68;;;;;;;22.29;88.67;99948.44;5025238;28;20041;-63
2023/10/13 13:52:57;;;;;;;13.85;6.00;;;;;;;22.21;89.83;99935.94;5024207;28;20049;-63
2023/10/13 13:55:28;;;;;;;12.27;5.78;;;;;;;22.30;90.35;99942.06;5023421;28;20084;-64
2023/10/13 13:57:56;;;;;;;15.00;5.18;;;;;;;23.51;83.01;99951.50;5009229;28;20220;-64
2023/10/13 14:00:48;;;;;;;12.23;4.60;;;;;;;25.48;74.35;99941.44;5008311;28;20052;-64
2023/10/13 14:04:17;;;;;;;12.45;4.97;;;;;;;27.64;60.68;99930.66;5024713;28;20091;-64
2023/10/13 14:06:21;;;;;;;11.27;4.50;;;;;;;29.70;53.73;99926.59;5012186;28;20171;-64
2023/10/13 14:08:48;;;;;;;18.33;5.55;;;;;;;30.20;51.45;99924.31;5009080;28;20049;-63
2023/10/13 14:12:17;;;;;;;12.52;4.85;;;;;;;30.38;49.08;99925.25;5026613;28;20223;-64
2023/10/13 14:16:53;;;;;;;13.18;5.60;;;;;;;29.64;50.62;99922.91;5034092;28;20065;-62
2023/10/13 14:19:26;;;;;;;16.45;4.80;;;;;;;29.82;50.75;99904.91;5033254;28;20505;-63
2023/10/13 14:21:55;;;;;;;15.32;5.13;;;;;;;30.06;49.62;99901.13;5032290;28;20092;-63
2023/10/13 14:24:58;;;;;;;14.73;5.32;;;;;;;30.10;48.84;99917.78;5029312;28;20084;-64
2023/10/13 14:27:22;;;;;;;13.50;5.40;;;;;;;31.11;46.98;99923.81;5019300;28;20049;-63
2023/10/13 14:29:53;;;;;;;11.32;4.93;;;;;;;32.34;44.46;99899.56;5021238;28;20451;-64
2023/10/13 14:32:24;;;;;;;14.73;4.50;;;;;;;33.27;41.29;99911.34;5023917;28;20076;-63
2023/10/13 14:34:56;;;;;;;13.68;5.45;;;;;;;32.63;41.46;99902.94;5026106;28;20167;-64
2023/10/13 14:37:26;;;;;;;14.40;5.53;;;;;;;31.09;42.78;99907.75;5024906;28;20069;-64
2023/10/13 14:39:57;;;;;;;16.15;4.78;;;;;;;30.26;45.27;99914.38;5026078;28;20148;-64
2023/10/13 14:42:26;;;;;;;9.32;4.72;;;;;;;30.66;45.50;99892.72;5022129;28;20045;-63
2023/10/13 14:44:56;;;;;;;13.48;5.57;;;;;;;31.32;42.89;99884.28;5026580;28;20136;-63
2023/10/13 14:47:27;;;;;;;14.52;4.28;;;;;;;30.18;45.11;99883.00;5020660;28;20082;-64